Norwegian Jewel — C6TX6 — position and weather

sailwx.info

Track history (hours):
 
Tides and Currents Weather Stations Pressure Air Temp Water Temp Dewpoint Dewpoint Depression Visibility Wind Speed Wind Dir Waves Ship Positions

Norwegian Jewel

Last reported at 2019-Jul-20 13:30 UTC. Time now 2019-Jul-20 13:57 UTC.
Position N 58°21' W 135°57'.

Type: Passenger vessel. MMSI: 311827000.

Date/timePositionNaut miles runAvg speedWind from/ knotsBaromVisibWave heightAir tempDewpointWater temp
2019-Jul-20 13:30N 58°21' W 135°57'510.2
2019-Jul-20 13:00N 58°19' W 135°48'612.2
2019-Jul-20 12:30N 58°16' W 135°37'611.7
2019-Jul-20 12:00N 58°14' W 135°27'611.2
2019-Jul-20 11:27N 58°12' W 135°16'36 8.1
2019-Jul-20 07:00N 58°48' W 135°12'1212.0 140 / 191024.0 13.0
2019-Jul-20 06:00N 59°00' W 135°12'24 3.0 180 / 181024.0 12.0
2019-Jul-19 22:00N 59°24' W 135°18'199 5.1 200 / 231022.010.8 20.020.014.0
2019-Jul-18 07:00N 56°12' W 133°42'118 6.0 280 / 71007.9 11.0
2019-Jul-17 11:32N 54°54' W 131°07'114.1
2019-Jul-17 11:29N 54°53' W 131°07'714.1
2019-Jul-17 11:00N 54°46' W 131°08'41153.9
2019-Jul-17 11:00N 54°42' W 131°06'5 9.9 130 / 231001.9 2.2 13.013.012.0
2019-Jul-17 10:30N 54°40' W 131°14'713.0
2019-Jul-17 10:00N 54°34' W 131°16'713.6
2019-Jul-17 09:30N 54°27' W 131°12'713.7
2019-Jul-17 09:00N 54°21' W 131°07'713.2
2019-Jul-17 08:30N 54°15' W 131°04'713.9
2019-Jul-17 08:00N 54°08' W 131°04'713.8
2019-Jul-17 07:30N 54°01' W 131°04'714.2
2019-Jul-17 07:00N 53°54' W 131°03'714.2
2019-Jul-17 06:30N 53°47' W 131°03'714.2
2019-Jul-17 06:00N 53°40' W 131°02'4245.7
2019-Jul-17 06:00N 53°36' W 131°00'4 7.4 140 / 281006.9 15.0
2019-Jul-17 05:30N 53°33' W 131°01'714.3
2019-Jul-17 05:00N 53°25' W 131°00'1172.9
2019-Jul-17 05:00N 53°24' W 131°00'712.2 140 / 281007.9 16.0
2019-Jul-17 04:24N 53°17' W 130°55'914.3
2019-Jul-17 03:47N 53°09' W 130°49'8014.0
2019-Jul-16 22:03N 51°55' W 129°58'1141914.5
2019-Jul-16 22:00N 51°48' W 126°54'112387.0 180 / 171018.010.8 15.015.014.0
2019-Jul-16 21:42N 51°51' W 129°55'314.5
2019-Jul-16 21:30N 51°48' W 129°53'714.1
2019-Jul-16 21:00N 51°42' W 129°47'714.5
2019-Jul-16 20:30N 51°36' W 129°41'714.2
2019-Jul-16 20:00N 51°30' W 129°36'713.6
2019-Jul-16 19:30N 51°25' W 129°28'714.7
2019-Jul-16 19:00N 51°21' W 129°19'714.6
2019-Jul-16 18:30N 51°17' W 129°08'714.6
2019-Jul-16 18:01N 51°14' W 128°58'714.5
2019-Jul-16 17:31N 51°12' W 128°47'714.7
2019-Jul-16 17:00N 51°09' W 128°36'714.5
2019-Jul-16 16:30N 51°07' W 128°25'714.8
2019-Jul-16 16:01N 51°05' W 128°14'714.7
2019-Jul-16 15:31N 51°02' W 128°03'714.5
2019-Jul-16 15:01N 51°00' W 127°52'612.1
2019-Jul-16 14:30N 50°57' W 127°43'714.6
2019-Jul-16 14:00N 50°52' W 127°34'2414.4
2019-Jul-16 12:21N 50°43' W 126°60'6312.8
2019-Jul-16 07:25N 50°20' W 125°27'512.1
2019-Jul-16 07:00N 50°16' W 125°24'714.2
2019-Jul-16 06:31N 50°09' W 125°21'713.2
2019-Jul-16 06:01N 50°04' W 125°15'714.8
2019-Jul-16 05:30N 49°57' W 125°09'713.6
2019-Jul-16 05:00N 49°53' W 125°02'7513.2
2019-Jul-16 05:00N 49°48' W 124°54'1 1.1 180 / 61020.0 19.0
2019-Jul-16 04:30N 49°48' W 124°55'713.3
2019-Jul-16 04:00N 49°43' W 124°48'917.3
2019-Jul-16 03:30N 49°37' W 124°39'917.5
2019-Jul-16 03:01N 49°30' W 124°30'916.9
2019-Jul-16 02:30N 49°26' W 124°19'817.1
2019-Jul-16 02:00N 49°23' W 124°06'917.3
2019-Jul-16 01:30N 49°21' W 123°53'917.3
2019-Jul-16 01:00N 49°19' W 123°40'917.7
2019-Jul-16 00:30N 49°18' W 123°27'917.2
2019-Jul-16 00:00N 49°19' W 123°14'510.2
2019-Jul-15 23:30N 49°17' W 123°06'0 0.5
2019-Jul-15 22:58N 49°17' W 123°07'0 0.0
2019-Jul-15 22:28N 49°17' W 123°07'0 0.0
2019-Jul-15 21:58N 49°17' W 123°07'0 0.0
2019-Jul-15 21:25N 49°17' W 123°07'0 0.0
2019-Jul-15 20:55N 49°17' W 123°07'0 0.0
2019-Jul-15 20:28N 49°17' W 123°07'0 0.0
2019-Jul-15 19:58N 49°17' W 123°07'0 0.0
2019-Jul-15 19:28N 49°17' W 123°07'0 0.0
2019-Jul-15 18:58N 49°17' W 123°07'0 0.0
2019-Jul-15 18:28N 49°17' W 123°07'0 0.0
2019-Jul-15 17:55N 49°17' W 123°07'0 0.0
2019-Jul-15 17:28N 49°17' W 123°07'0 0.0
2019-Jul-15 16:58N 49°17' W 123°07'0 0.0
2019-Jul-15 16:28N 49°17' W 123°07'0 0.0
2019-Jul-15 15:58N 49°17' W 123°07'0 0.0
2019-Jul-15 15:28N 49°17' W 123°07'0 0.0
2019-Jul-15 14:58N 49°17' W 123°07'0 0.0
2019-Jul-15 14:28N 49°17' W 123°07'0 0.0
2019-Jul-15 13:58N 49°17' W 123°07'0 0.4
2019-Jul-15 13:30N 49°17' W 123°06'2 4.2
2019-Jul-15 13:00N 49°19' W 123°09'612.1
2019-Jul-15 12:31N 49°18' W 123°18'815.7
2019-Jul-15 12:00N 49°19' W 123°30'816.2
2019-Jul-15 11:30N 49°19' W 123°42'816.8
2019-Jul-15 11:00N 49°21' W 123°55'816.5
2019-Jul-15 10:30N 49°23' W 124°07'816.2
2019-Jul-15 10:00N 49°25' W 124°19'816.5
2019-Jul-15 09:30N 49°30' W 124°30'917.6
2019-Jul-15 09:00N 49°36' W 124°39'918.5
2019-Jul-15 08:30N 49°43' W 124°49'918.1
2019-Jul-15 08:00N 49°49' W 124°58'917.3
2019-Jul-15 07:30N 49°56' W 125°08'816.7
2019-Jul-15 07:00N 50°03' W 125°14'713.6
2019-Jul-15 06:30N 50°08' W 125°21'714.5
2019-Jul-15 06:00N 50°15' W 125°24'3759.1
2019-Jul-15 06:00N 50°12' W 125°24'1715.0 320 / 101023.0 17.0
2019-Jul-15 04:50N 50°22' W 125°46'910.8
2019-Jul-15 04:00N 50°24' W 126°00'4017.3 290 / 131024.0 18.0
2019-Jul-15 01:40N 50°42' W 126°57'2117.6
2019-Jul-15 00:28N 50°50' W 127°27'917.1
2019-Jul-14 23:58N 50°55' W 127°39'816.9
2019-Jul-14 23:30N 50°59' W 127°49'713.2
2019-Jul-14 23:00N 51°01' W 127°59'815.2
2019-Jul-14 22:30N 51°04' W 128°10'815.3
2019-Jul-14 22:00N 51°06' W 128°22'815.3
2019-Jul-14 21:30N 51°09' W 128°33'816.0
2019-Jul-14 21:00N 51°11' W 128°45'6362.3
2019-Jul-14 21:00N 51°06' W 128°42'1225.2 180 / 51024.010.8 17.017.015.0
2019-Jul-14 20:30N 51°14' W 128°57'816.0
2019-Jul-14 20:00N 51°17' W 129°09'815.8
2019-Jul-14 19:30N 51°21' W 129°19'815.8
2019-Jul-14 19:00N 51°25' W 129°30'815.8
2019-Jul-14 18:30N 51°32' W 129°38'916.9
2019-Jul-14 18:00N 51°39' W 129°44'4671.8
2019-Jul-14 18:00N 51°36' W 129°42'1224.5 180 / 61023.0 15.0
2019-Jul-14 17:30N 51°47' W 129°51'9517.8
2019-Jul-14 12:09N 53°14' W 130°53'318.3
2019-Jul-14 12:00N 53°17' W 130°55'1018.6
2019-Jul-14 11:29N 53°26' W 131°01'918.5
2019-Jul-14 11:00N 53°34' W 131°02'918.4
2019-Jul-14 10:30N 53°44' W 131°03'917.9
2019-Jul-14 10:00N 53°53' W 131°03'917.7
2019-Jul-14 09:30N 54°01' W 131°04'917.4
2019-Jul-14 09:01N 54°10' W 131°04'917.4
2019-Jul-14 08:30N 54°19' W 131°06'917.4
2019-Jul-14 08:00N 54°27' W 131°11'917.8
2019-Jul-14 07:30N 54°36' W 131°15'1017.9
2019-Jul-14 06:58N 54°45' W 131°11'817.7
2019-Jul-14 06:30N 54°53' W 131°08'1417.5
2019-Jul-14 05:42N 55°07' W 131°09'223 9.0
2019-Jul-13 05:00N 58°12' W 134°54'31 1.4 150 / 81020.0 13.0
2019-Jul-12 07:00N 58°00' W 134°00'1212.4 150 / 31021.0 15.0
2019-Jul-12 06:00N 57°48' W 133°54'37 1.7 140 / 121021.0 15.0
2019-Jul-11 09:00N 58°06' W 134°54'12 3.1 150 / 141018.010.8 15.015.014.0
2019-Jul-11 05:00N 57°54' W 134°48'2111.7 040 / 101015.0 17.0
2019-Jul-11 03:12N 58°09' W 135°16'310.4
2019-Jul-11 02:57N 58°09' W 135°21'4 8.9
2019-Jul-11 02:30N 58°08' W 135°28'1 0.1
2019-Jul-10 15:46N 58°09' W 135°27'3 8.5
2019-Jul-10 15:23N 58°12' W 135°27'615.0
2019-Jul-10 15:01N 58°15' W 135°36'714.2
2019-Jul-10 14:31N 58°18' W 135°48'714.5
2019-Jul-10 14:01N 58°20' W 136°01'  
Track history (hours):
 
Tides and Currents Weather Stations Pressure Air Temp Water Temp Dewpoint Dewpoint Depression Visibility Wind Speed Wind Dir Waves Ship Positions

Norwegian Jewel

Last reported at 2019-Jul-20 13:30 UTC. Time now 2019-Jul-20 13:57 UTC.
Position N 58°21' W 135°57'.

Type: Passenger vessel. MMSI: 311827000.

Date/timePositionNaut miles runAvg speedWind from/ knotsBaromVisibWave heightAir tempDewpointWater temp
2019-Jul-20 13:30N 58°21' W 135°57'510.2
2019-Jul-20 13:00N 58°19' W 135°48'612.2
2019-Jul-20 12:30N 58°16' W 135°37'611.7
2019-Jul-20 12:00N 58°14' W 135°27'611.2
2019-Jul-20 11:27N 58°12' W 135°16'36 8.1
2019-Jul-20 07:00N 58°48' W 135°12'1212.0 140 / 191024.0 13.0
2019-Jul-20 06:00N 59°00' W 135°12'24 3.0 180 / 181024.0 12.0
2019-Jul-19 22:00N 59°24' W 135°18'199 5.1 200 / 231022.010.8 20.020.014.0
2019-Jul-18 07:00N 56°12' W 133°42'118 6.0 280 / 71007.9 11.0
2019-Jul-17 11:32N 54°54' W 131°07'114.1
2019-Jul-17 11:29N 54°53' W 131°07'714.1
2019-Jul-17 11:00N 54°46' W 131°08'41153.9
2019-Jul-17 11:00N 54°42' W 131°06'5 9.9 130 / 231001.9 2.2 13.013.012.0
2019-Jul-17 10:30N 54°40' W 131°14'713.0
2019-Jul-17 10:00N 54°34' W 131°16'713.6
2019-Jul-17 09:30N 54°27' W 131°12'713.7
2019-Jul-17 09:00N 54°21' W 131°07'713.2
2019-Jul-17 08:30N 54°15' W 131°04'713.9
2019-Jul-17 08:00N 54°08' W 131°04'713.8
2019-Jul-17 07:30N 54°01' W 131°04'714.2
2019-Jul-17 07:00N 53°54' W 131°03'714.2
2019-Jul-17 06:30N 53°47' W 131°03'714.2
2019-Jul-17 06:00N 53°40' W 131°02'4245.7
2019-Jul-17 06:00N 53°36' W 131°00'4 7.4 140 / 281006.9 15.0
2019-Jul-17 05:30N 53°33' W 131°01'714.3
2019-Jul-17 05:00N 53°25' W 131°00'1172.9
2019-Jul-17 05:00N 53°24' W 131°00'712.2 140 / 281007.9 16.0
2019-Jul-17 04:24N 53°17' W 130°55'914.3
2019-Jul-17 03:47N 53°09' W 130°49'8014.0
2019-Jul-16 22:03N 51°55' W 129°58'1141914.5
2019-Jul-16 22:00N 51°48' W 126°54'112387.0 180 / 171018.010.8 15.015.014.0
2019-Jul-16 21:42N 51°51' W 129°55'314.5
2019-Jul-16 21:30N 51°48' W 129°53'714.1
2019-Jul-16 21:00N 51°42' W 129°47'714.5
2019-Jul-16 20:30N 51°36' W 129°41'714.2
2019-Jul-16 20:00N 51°30' W 129°36'713.6
2019-Jul-16 19:30N 51°25' W 129°28'714.7
2019-Jul-16 19:00N 51°21' W 129°19'714.6
2019-Jul-16 18:30N 51°17' W 129°08'714.6
2019-Jul-16 18:01N 51°14' W 128°58'714.5
2019-Jul-16 17:31N 51°12' W 128°47'714.7
2019-Jul-16 17:00N 51°09' W 128°36'714.5
2019-Jul-16 16:30N 51°07' W 128°25'714.8
2019-Jul-16 16:01N 51°05' W 128°14'714.7
2019-Jul-16 15:31N 51°02' W 128°03'714.5
2019-Jul-16 15:01N 51°00' W 127°52'612.1
2019-Jul-16 14:30N 50°57' W 127°43'714.6
2019-Jul-16 14:00N 50°52' W 127°34'2414.4
2019-Jul-16 12:21N 50°43' W 126°60'6312.8
2019-Jul-16 07:25N 50°20' W 125°27'512.1
2019-Jul-16 07:00N 50°16' W 125°24'714.2
2019-Jul-16 06:31N 50°09' W 125°21'713.2
2019-Jul-16 06:01N 50°04' W 125°15'714.8
2019-Jul-16 05:30N 49°57' W 125°09'713.6
2019-Jul-16 05:00N 49°53' W 125°02'7513.2
2019-Jul-16 05:00N 49°48' W 124°54'1 1.1 180 / 61020.0 19.0
2019-Jul-16 04:30N 49°48' W 124°55'713.3
2019-Jul-16 04:00N 49°43' W 124°48'917.3
2019-Jul-16 03:30N 49°37' W 124°39'917.5
2019-Jul-16 03:01N 49°30' W 124°30'916.9
2019-Jul-16 02:30N 49°26' W 124°19'817.1
2019-Jul-16 02:00N 49°23' W 124°06'917.3
2019-Jul-16 01:30N 49°21' W 123°53'917.3
2019-Jul-16 01:00N 49°19' W 123°40'917.7
2019-Jul-16 00:30N 49°18' W 123°27'917.2
2019-Jul-16 00:00N 49°19' W 123°14'510.2
2019-Jul-15 23:30N 49°17' W 123°06'0 0.5
2019-Jul-15 22:58N 49°17' W 123°07'0 0.0
2019-Jul-15 22:28N 49°17' W 123°07'0 0.0
2019-Jul-15 21:58N 49°17' W 123°07'0 0.0
2019-Jul-15 21:25N 49°17' W 123°07'0 0.0
2019-Jul-15 20:55N 49°17' W 123°07'0 0.0
2019-Jul-15 20:28N 49°17' W 123°07'0 0.0
2019-Jul-15 19:58N 49°17' W 123°07'0 0.0
2019-Jul-15 19:28N 49°17' W 123°07'0 0.0
2019-Jul-15 18:58N 49°17' W 123°07'0 0.0
2019-Jul-15 18:28N 49°17' W 123°07'0 0.0
2019-Jul-15 17:55N 49°17' W 123°07'0 0.0
2019-Jul-15 17:28N 49°17' W 123°07'0 0.0
2019-Jul-15 16:58N 49°17' W 123°07'0 0.0
2019-Jul-15 16:28N 49°17' W 123°07'0 0.0
2019-Jul-15 15:58N 49°17' W 123°07'0 0.0
2019-Jul-15 15:28N 49°17' W 123°07'0 0.0
2019-Jul-15 14:58N 49°17' W 123°07'0 0.0
2019-Jul-15 14:28N 49°17' W 123°07'0 0.0
2019-Jul-15 13:58N 49°17' W 123°07'0 0.4
2019-Jul-15 13:30N 49°17' W 123°06'2 4.2
2019-Jul-15 13:00N 49°19' W 123°09'612.1
2019-Jul-15 12:31N 49°18' W 123°18'815.7
2019-Jul-15 12:00N 49°19' W 123°30'816.2
2019-Jul-15 11:30N 49°19' W 123°42'816.8
2019-Jul-15 11:00N 49°21' W 123°55'816.5
2019-Jul-15 10:30N 49°23' W 124°07'816.2
2019-Jul-15 10:00N 49°25' W 124°19'816.5
2019-Jul-15 09:30N 49°30' W 124°30'917.6
2019-Jul-15 09:00N 49°36' W 124°39'918.5
2019-Jul-15 08:30N 49°43' W 124°49'918.1
2019-Jul-15 08:00N 49°49' W 124°58'917.3
2019-Jul-15 07:30N 49°56' W 125°08'816.7
2019-Jul-15 07:00N 50°03' W 125°14'713.6
2019-Jul-15 06:30N 50°08' W 125°21'714.5
2019-Jul-15 06:00N 50°15' W 125°24'3759.1
2019-Jul-15 06:00N 50°12' W 125°24'1715.0 320 / 101023.0 17.0
2019-Jul-15 04:50N 50°22' W 125°46'910.8
2019-Jul-15 04:00N 50°24' W 126°00'4017.3 290 / 131024.0 18.0
2019-Jul-15 01:40N 50°42' W 126°57'2117.6
2019-Jul-15 00:28N 50°50' W 127°27'917.1
2019-Jul-14 23:58N 50°55' W 127°39'816.9
2019-Jul-14 23:30N 50°59' W 127°49'713.2
2019-Jul-14 23:00N 51°01' W 127°59'815.2
2019-Jul-14 22:30N 51°04' W 128°10'815.3
2019-Jul-14 22:00N 51°06' W 128°22'815.3
2019-Jul-14 21:30N 51°09' W 128°33'816.0
2019-Jul-14 21:00N 51°11' W 128°45'6362.3
2019-Jul-14 21:00N 51°06' W 128°42'1225.2 180 / 51024.010.8 17.017.015.0
2019-Jul-14 20:30N 51°14' W 128°57'816.0
2019-Jul-14 20:00N 51°17' W 129°09'815.8
2019-Jul-14 19:30N 51°21' W 129°19'815.8
2019-Jul-14 19:00N 51°25' W 129°30'815.8
2019-Jul-14 18:30N 51°32' W 129°38'916.9
2019-Jul-14 18:00N 51°39' W 129°44'4671.8
2019-Jul-14 18:00N 51°36' W 129°42'1224.5 180 / 61023.0 15.0
2019-Jul-14 17:30N 51°47' W 129°51'9517.8
2019-Jul-14 12:09N 53°14' W 130°53'318.3
2019-Jul-14 12:00N 53°17' W 130°55'1018.6
2019-Jul-14 11:29N 53°26' W 131°01'918.5
2019-Jul-14 11:00N 53°34' W 131°02'918.4
2019-Jul-14 10:30N 53°44' W 131°03'917.9
2019-Jul-14 10:00N 53°53' W 131°03'917.7
2019-Jul-14 09:30N 54°01' W 131°04'917.4
2019-Jul-14 09:01N 54°10' W 131°04'917.4
2019-Jul-14 08:30N 54°19' W 131°06'917.4
2019-Jul-14 08:00N 54°27' W 131°11'917.8
2019-Jul-14 07:30N 54°36' W 131°15'1017.9
2019-Jul-14 06:58N 54°45' W 131°11'817.7
2019-Jul-14 06:30N 54°53' W 131°08'1417.5
2019-Jul-14 05:42N 55°07' W 131°09'223 9.0
2019-Jul-13 05:00N 58°12' W 134°54'31 1.4 150 / 81020.0 13.0
2019-Jul-12 07:00N 58°00' W 134°00'1212.4 150 / 31021.0 15.0
2019-Jul-12 06:00N 57°48' W 133°54'37 1.7 140 / 121021.0 15.0
2019-Jul-11 09:00N 58°06' W 134°54'12 3.1 150 / 141018.010.8 15.015.014.0
2019-Jul-11 05:00N 57°54' W 134°48'2111.7 040 / 101015.0 17.0
2019-Jul-11 03:12N 58°09' W 135°16'310.4
2019-Jul-11 02:57N 58°09' W 135°21'4 8.9
2019-Jul-11 02:30N 58°08' W 135°28'1 0.1
2019-Jul-10 15:46N 58°09' W 135°27'3 8.5
2019-Jul-10 15:23N 58°12' W 135°27'615.0
2019-Jul-10 15:01N 58°15' W 135°36'714.2
2019-Jul-10 14:31N 58°18' W 135°48'714.5
2019-Jul-10 14:01N 58°20' W 136°01'  

Dump ship's entire track history